Time;durP1;ratioP1;P1;durP2;ratioP2;P2;SDS_P1;SDS_P2;PMS_P1;PMS_P2;Temp;Humidity;BMP_temperature;BMP_pressure;BME280_temperature;BME280_humidity;BME280_pressure;Samples;Min_cycle;Max_cycle;Signal;HPM_P1;HPM_P2
2022/06/10 00:00:50;;;;;;;3.70;2.30;;;;;;;;;;5035657;28;20185;-85
2022/06/10 00:03:16;;;;;;;3.55;2.15;;;;;;;;;;5025788;28;20179;-85
2022/06/10 00:05:43;;;;;;;2.70;2.13;;;;;;;;;;5030606;28;20190;-86
2022/06/10 00:08:11;;;;;;;2.40;2.20;;;;;;;;;;5024137;28;20865;-85
2022/06/10 00:10:37;;;;;;;3.08;2.20;;;;;;;;;;5025255;28;20186;-85
2022/06/10 00:13:03;;;;;;;3.30;2.17;;;;;;;;;;5019188;28;20271;-85
2022/06/10 00:15:29;;;;;;;3.30;2.42;;;;;;;;;;5011783;28;20596;-85
2022/06/10 00:17:55;;;;;;;2.58;2.35;;;;;;;;;;5024177;28;20289;-86
2022/06/10 00:20:23;;;;;;;4.20;2.45;;;;;;;;;;5034978;28;20675;-86
2022/06/10 00:22:49;;;;;;;3.55;2.63;;;;;;;;;;5026090;28;20183;-87
2022/06/10 00:25:17;;;;;;;2.72;2.10;;;;;;;;;;5026177;28;20182;-85
2022/06/10 00:27:43;;;;;;;3.95;1.95;;;;;;;;;;5035873;28;20209;-85
2022/06/10 00:30:10;;;;;;;2.40;2.20;;;;;;;;;;5024262;28;20293;-86
2022/06/10 00:32:36;;;;;;;2.92;2.63;;;;;;;;;;5033490;28;20182;-88
2022/06/10 00:35:02;;;;;;;3.50;2.60;;;;;;;;;;5018353;28;20734;-87
2022/06/10 00:37:28;;;;;;;6.20;2.10;;;;;;;;;;5013233;28;20211;-85
2022/06/10 00:39:54;;;;;;;3.90;2.70;;;;;;;;;;5023921;28;20197;-85
2022/06/10 00:42:20;;;;;;;2.78;2.55;;;;;;;;;;5024525;28;20566;-84
2022/06/10 00:44:48;;;;;;;2.70;2.50;;;;;;;;;;5035530;28;20213;-85
2022/06/10 00:47:15;;;;;;;4.07;3.25;;;;;;;;;;5022778;28;20642;-85
2022/06/10 00:49:44;;;;;;;2.63;2.45;;;;;;;;;;5032288;28;20697;-85
2022/06/10 00:52:30;;;;;;;2.92;2.60;;;;;;;;;;5025062;28;20204;-85
2022/06/10 00:54:57;;;;;;;2.83;2.20;;;;;;;;;;5032617;28;20255;-85
2022/06/10 00:57:25;;;;;;;2.70;2.50;;;;;;;;;;5022200;28;20210;-85
2022/06/10 00:59:57;;;;;;;2.70;2.50;;;;;;;;;;5024455;28;20569;-85
2022/06/10 01:02:25;;;;;;;5.32;2.38;;;;;;;;;;5022662;28;20219;-85
2022/06/10 01:04:53;;;;;;;2.75;2.35;;;;;;;;;;5032777;28;20187;-85
2022/06/10 01:07:21;;;;;;;3.05;2.40;;;;;;;;;;5022389;28;20214;-85
2022/06/10 01:09:47;;;;;;;3.10;2.43;;;;;;;;;;5024327;28;20221;-84
2022/06/10 01:12:29;;;;;;;4.10;2.40;;;;;;;;;;5013577;28;20194;-85
2022/06/10 01:15:02;;;;;;;3.67;2.42;;;;;;;;;;5022578;28;20210;-85
2022/06/10 01:17:34;;;;;;;3.07;2.70;;;;;;;;;;5031335;28;20207;-85
2022/06/10 01:20:16;;;;;;;3.72;2.35;;;;;;;;;;5022381;28;20636;-84
2022/06/10 01:22:53;;;;;;;2.75;2.45;;;;;;;;;;5023051;28;20309;-84
2022/06/10 01:25:22;;;;;;;4.88;2.65;;;;;;;;;;5016462;28;20198;-86
2022/06/10 01:27:57;;;;;;;7.32;3.10;;;;;;;;;;5035166;28;20234;-85
2022/06/10 01:30:38;;;;;;;4.30;2.70;;;;;;;;;;5035919;28;20197;-86
2022/06/10 01:33:10;;;;;;;5.40;3.07;;;;;;;;;;5018638;28;20197;-86
2022/06/10 01:35:55;;;;;;;5.77;3.47;;;;;;;;;;5026173;28;20202;-83
2022/06/10 01:38:22;;;;;;;4.00;2.60;;;;;;;;;;5025779;28;20186;-85
2022/06/10 01:40:51;;;;;;;3.87;2.70;;;;;;;;;;5026901;28;20182;-83
2022/06/10 01:43:38;;;;;;;3.00;2.70;;;;;;;;;;5035694;28;20410;-84
2022/06/10 01:46:11;;;;;;;5.77;2.63;;;;;;;;;;5019001;28;20214;-85
2022/06/10 01:49:04;;;;;;;4.67;2.60;;;;;;;;;;5025415;28;20226;-85
2022/06/10 01:51:45;;;;;;;6.03;3.50;;;;;;;;;;5022757;28;20201;-85
2022/06/10 01:54:23;;;;;;;3.40;2.77;;;;;;;;;;5019513;28;20197;-85
2022/06/10 01:56:50;;;;;;;4.83;2.90;;;;;;;;;;5025889;28;20568;-85
2022/06/10 01:59:23;;;;;;;3.93;2.47;;;;;;;;;;5025996;28;20178;-85
2022/06/10 02:01:51;;;;;;;4.37;3.20;;;;;;;;;;5021813;28;20183;-84
2022/06/10 02:04:20;;;;;;;3.63;3.10;;;;;;;;;;5026655;28;20278;-84
2022/06/10 02:06:50;;;;;;;5.83;3.00;;;;;;;;;;5025986;28;20238;-84
2022/06/10 02:09:19;;;;;;;3.60;3.27;;;;;;;;;;5025848;28;20206;-84
2022/06/10 02:11:48;;;;;;;6.33;3.20;;;;;;;;;;5026253;28;20951;-85
2022/06/10 02:14:20;;;;;;;6.40;3.13;;;;;;;;;;5026380;28;20221;-85
2022/06/10 02:16:47;;;;;;;3.60;2.80;;;;;;;;;;5018356;28;20210;-84
2022/06/10 02:19:24;;;;;;;3.80;2.77;;;;;;;;;;5025232;28;20225;-85
2022/06/10 02:21:50;;;;;;;4.63;3.27;;;;;;;;;;5019847;28;20256;-85
2022/06/10 02:24:19;;;;;;;3.77;3.00;;;;;;;;;;5026803;28;20213;-85
2022/06/10 02:26:47;;;;;;;3.57;2.80;;;;;;;;;;5023071;28;20205;-85
2022/06/10 02:29:17;;;;;;;3.17;2.87;;;;;;;;;;5026371;28;20190;-85
2022/06/10 02:31:53;;;;;;;4.33;2.83;;;;;;;;;;5037748;28;20607;-85
2022/06/10 02:34:19;;;;;;;5.23;3.00;;;;;;;;;;5025565;28;20214;-85
2022/06/10 02:36:51;;;;;;;4.57;3.50;;;;;;;;;;5025191;28;20447;-85
2022/06/10 02:39:20;;;;;;;4.73;3.13;;;;;;;;;;5026422;28;20632;-85
2022/06/10 02:41:50;;;;;;;3.23;2.83;;;;;;;;;;5025540;28;20321;-85
2022/06/10 02:44:19;;;;;;;5.57;3.10;;;;;;;;;;5025089;28;20642;-85
2022/06/10 02:46:53;;;;;;;3.97;3.10;;;;;;;;;;5024519;28;20264;-86
2022/06/10 02:49:20;;;;;;;4.90;3.20;;;;;;;;;;5036634;28;20699;-85
2022/06/10 02:51:47;;;;;;;5.50;3.20;;;;;;;;;;5025270;28;20264;-85
2022/06/10 02:54:15;;;;;;;4.57;3.00;;;;;;;;;;5033088;28;20214;-85
2022/06/10 02:56:41;;;;;;;4.53;3.03;;;;;;;;;;5015706;28;20206;-85
2022/06/10 03:02:07;;;;;;;4.23;3.10;;;;;;;;;;5036493;28;20270;-85
2022/06/10 03:04:48;;;;;;;4.67;3.00;;;;;;;;;;5034439;28;20249;-85
2022/06/10 03:07:15;;;;;;;5.07;3.23;;;;;;;;;;5017179;28;20217;-85
2022/06/10 03:10:08;;;;;;;3.70;3.07;;;;;;;;;;5032891;28;20205;-85
2022/06/10 03:12:37;;;;;;;5.17;2.73;;;;;;;;;;5025437;28;20198;-85
2022/06/10 03:15:03;;;;;;;5.03;3.27;;;;;;;;;;5022875;28;20264;-85
2022/06/10 03:17:41;;;;;;;4.37;2.73;;;;;;;;;;5036971;28;20615;-85
2022/06/10 03:20:16;;;;;;;4.83;3.13;;;;;;;;;;5025172;28;20648;-85
2022/06/10 03:23:01;;;;;;;3.47;2.80;;;;;;;;;;5022833;28;20185;-84
2022/06/10 03:25:42;;;;;;;5.63;3.03;;;;;;;;;;5023477;28;20209;-85
2022/06/10 03:28:33;;;;;;;4.03;2.47;;;;;;;;;;5024854;28;20230;-85
2022/06/10 03:30:59;;;;;;;6.37;2.60;;;;;;;;;;5035229;28;20195;-86
2022/06/10 03:33:45;;;;;;;6.33;2.80;;;;;;;;;;5035213;28;20694;-86
2022/06/10 03:36:13;;;;;;;5.00;2.70;;;;;;;;;;5036010;28;20186;-86
2022/06/10 03:38:41;;;;;;;2.97;2.70;;;;;;;;;;5016980;28;20888;-86
2022/06/10 03:41:07;;;;;;;3.43;3.13;;;;;;;;;;5036409;28;20226;-86
2022/06/10 03:43:39;;;;;;;3.70;2.90;;;;;;;;;;5024540;28;20240;-86
2022/06/10 03:46:07;;;;;;;6.13;3.20;;;;;;;;;;5025322;28;20284;-86
2022/06/10 03:48:35;;;;;;;3.27;2.40;;;;;;;;;;5033954;28;20284;-86
2022/06/10 03:51:01;;;;;;;5.20;2.97;;;;;;;;;;5033185;28;20190;-86
2022/06/10 03:53:27;;;;;;;8.43;2.80;;;;;;;;;;5033589;28;20209;-85
2022/06/10 03:55:53;;;;;;;4.53;2.80;;;;;;;;;;5023006;28;20214;-86
2022/06/10 03:58:20;;;;;;;3.67;2.70;;;;;;;;;;5023853;28;20197;-87
2022/06/10 04:00:46;;;;;;;5.97;3.10;;;;;;;;;;5022485;28;20214;-87
2022/06/10 04:03:12;;;;;;;5.53;3.00;;;;;;;;;;5024297;28;20665;-85
2022/06/10 04:05:38;;;;;;;4.03;3.27;;;;;;;;;;5016673;28;20607;-85
2022/06/10 04:08:04;;;;;;;3.37;3.00;;;;;;;;;;5023176;28;20249;-86
2022/06/10 04:10:30;;;;;;;6.10;3.03;;;;;;;;;;5035032;28;20199;-87
2022/06/10 04:12:56;;;;;;;4.83;3.00;;;;;;;;;;5018421;28;20192;-86
2022/06/10 04:15:27;;;;;;;4.20;2.90;;;;;;;;;;5023551;28;20574;-86
2022/06/10 04:17:54;;;;;;;3.63;2.83;;;;;;;;;;5033378;28;20683;-86
2022/06/10 04:20:23;;;;;;;3.83;2.80;;;;;;;;;;5014722;28;20276;-86
2022/06/10 04:22:49;;;;;;;4.37;2.90;;;;;;;;;;5023504;28;20191;-87
2022/06/10 04:25:15;;;;;;;6.15;3.05;;;;;;;;;;5014499;28;20190;-85
2022/06/10 04:27:41;;;;;;;4.28;2.97;;;;;;;;;;5032944;28;20538;-86
2022/06/10 04:30:08;;;;;;;4.90;3.00;;;;;;;;;;5023990;28;20186;-86
2022/06/10 04:32:34;;;;;;;4.32;2.72;;;;;;;;;;5024241;28;20205;-87
2022/06/10 04:35:00;;;;;;;4.13;2.78;;;;;;;;;;5023985;28;20328;-86
2022/06/10 04:37:26;;;;;;;3.58;2.67;;;;;;;;;;5017060;28;20206;-87
2022/06/10 04:39:52;;;;;;;4.85;2.90;;;;;;;;;;5016082;28;20618;-87
2022/06/10 04:42:18;;;;;;;3.65;2.90;;;;;;;;;;5024795;28;20902;-86
2022/06/10 04:44:44;;;;;;;4.63;2.55;;;;;;;;;;5014941;28;20221;-87
2022/06/10 04:47:10;;;;;;;3.90;2.40;;;;;;;;;;5023559;28;20238;-86
2022/06/10 04:49:36;;;;;;;3.92;2.92;;;;;;;;;;5033678;28;20668;-88
2022/06/10 04:52:03;;;;;;;5.00;2.67;;;;;;;;;;5023695;28;20194;-89
2022/06/10 04:54:29;;;;;;;3.95;2.78;;;;;;;;;;5022250;28;20199;-86
2022/06/10 04:56:56;;;;;;;2.42;2.20;;;;;;;;;;5029626;28;20204;-87
2022/06/10 04:59:22;;;;;;;2.20;1.83;;;;;;;;;;5022527;28;20838;-87
2022/06/10 05:01:49;;;;;;;5.47;1.90;;;;;;;;;;5024505;28;20715;-88
2022/06/10 05:04:15;;;;;;;3.28;1.70;;;;;;;;;;5021859;28;20226;-87
2022/06/10 05:06:41;;;;;;;3.13;1.30;;;;;;;;;;5023819;28;20322;-87
2022/06/10 05:09:07;;;;;;;2.35;1.48;;;;;;;;;;5020633;28;20285;-86
2022/06/10 05:11:33;;;;;;;3.42;1.58;;;;;;;;;;5016236;28;20282;-86
2022/06/10 05:13:59;;;;;;;2.95;1.65;;;;;;;;;;5027876;28;20190;-87
2022/06/10 05:16:25;;;;;;;3.28;1.33;;;;;;;;;;5025674;28;20211;-87
2022/06/10 05:18:52;;;;;;;3.30;1.30;;;;;;;;;;5027570;28;20205;-87
2022/06/10 05:21:18;;;;;;;3.28;1.63;;;;;;;;;;5027833;28;20191;-87
2022/06/10 05:23:45;;;;;;;3.00;1.60;;;;;;;;;;5034751;28;20313;-86
2022/06/10 05:26:11;;;;;;;2.53;1.50;;;;;;;;;;5027432;28;20273;-88
2022/06/10 05:28:37;;;;;;;2.67;1.27;;;;;;;;;;5018257;28;20186;-87
2022/06/10 05:31:03;;;;;;;3.30;1.88;;;;;;;;;;5021626;28;20846;-87
2022/06/10 05:34:44;;;;;;;2.38;1.52;;;;;;;;;;5014732;28;21400;-87
2022/06/10 05:36:17;;;;;;;2.15;1.50;;;;;;;;;;5024300;28;20230;-87
2022/06/10 05:38:43;;;;;;;3.30;1.50;;;;;;;;;;5017615;28;20190;-88
2022/06/10 05:43:54;;;;;;;3.05;1.50;;;;;;;;;;5039798;28;20768;-87
2022/06/10 05:46:20;;;;;;;3.80;1.80;;;;;;;;;;5026585;28;20309;-88
2022/06/10 05:48:46;;;;;;;4.25;1.83;;;;;;;;;;5016914;28;20493;-87
2022/06/10 05:51:12;;;;;;;2.83;1.85;;;;;;;;;;5024970;28;20186;-88
2022/06/10 05:53:38;;;;;;;3.70;1.90;;;;;;;;;;5026608;28;20186;-87
2022/06/10 05:56:04;;;;;;;2.60;2.10;;;;;;;;;;5026993;28;20221;-87
2022/06/10 05:58:30;;;;;;;2.38;2.15;;;;;;;;;;5024677;28;20574;-88
2022/06/10 06:00:57;;;;;;;5.32;2.17;;;;;;;;;;5030569;28;20241;-88
2022/06/10 06:03:23;;;;;;;5.97;2.20;;;;;;;;;;5025469;28;20239;-88
2022/06/10 06:05:49;;;;;;;4.97;2.40;;;;;;;;;;5026933;28;20179;-88
2022/06/10 06:08:16;;;;;;;4.00;2.00;;;;;;;;;;5023408;28;20206;-88
2022/06/10 06:10:43;;;;;;;3.20;2.20;;;;;;;;;;5016878;28;20612;-88
2022/06/10 06:13:10;;;;;;;2.42;2.20;;;;;;;;;;5018116;28;20186;-88
2022/06/10 06:15:36;;;;;;;3.13;2.08;;;;;;;;;;5031424;28;20246;-88
2022/06/10 06:18:02;;;;;;;3.28;2.30;;;;;;;;;;5033110;28;20221;-88
2022/06/10 06:20:29;;;;;;;3.60;2.85;;;;;;;;;;5020195;28;20183;-87
2022/06/10 06:22:55;;;;;;;4.32;2.58;;;;;;;;;;5028327;28;20175;-89
2022/06/10 06:25:21;;;;;;;2.53;2.30;;;;;;;;;;5037579;28;20818;-88
2022/06/10 06:27:48;;;;;;;4.47;2.65;;;;;;;;;;5037594;28;20293;-88
2022/06/10 06:30:18;;;;;;;3.67;2.63;;;;;;;;;;5028726;28;20205;-89
2022/06/10 06:32:45;;;;;;;3.45;2.78;;;;;;;;;;5020219;28;20182;-88
2022/06/10 06:35:11;;;;;;;3.92;2.63;;;;;;;;;;5038082;28;20206;-88
2022/06/10 06:37:37;;;;;;;4.57;3.72;;;;;;;;;;5024264;28;20202;-88
2022/06/10 06:40:04;;;;;;;3.38;2.83;;;;;;;;;;5028413;28;20193;-89
2022/06/10 06:42:30;;;;;;;3.78;3.33;;;;;;;;;;5028232;28;20719;-88
2022/06/10 06:44:56;;;;;;;4.32;3.30;;;;;;;;;;5038329;28;20277;-88
2022/06/10 06:47:22;;;;;;;3.40;3.03;;;;;;;;;;5027308;28;20599;-88
2022/06/10 06:49:48;;;;;;;3.92;3.63;;;;;;;;;;5021199;28;20190;-89
2022/06/10 06:52:14;;;;;;;3.88;3.22;;;;;;;;;;5036627;28;20191;-89
2022/06/10 06:54:40;;;;;;;4.03;3.63;;;;;;;;;;5037839;28;20213;-86
2022/06/10 06:57:07;;;;;;;3.35;2.83;;;;;;;;;;5027552;28;20202;-84
2022/06/10 06:59:33;;;;;;;5.30;4.00;;;;;;;;;;5032538;28;20248;-85
2022/06/10 07:01:59;;;;;;;5.68;4.00;;;;;;;;;;5013343;28;20197;-85
2022/06/10 07:04:25;;;;;;;3.63;2.78;;;;;;;;;;5033063;28;20190;-85
2022/06/10 07:06:51;;;;;;;4.18;3.78;;;;;;;;;;5014285;28;20687;-86
2022/06/10 07:09:17;;;;;;;3.85;2.83;;;;;;;;;;5033452;28;20202;-85
2022/06/10 07:11:44;;;;;;;5.65;4.05;;;;;;;;;;5019867;28;20657;-85
2022/06/10 07:14:11;;;;;;;4.22;3.17;;;;;;;;;;5013816;28;20238;-85
2022/06/10 07:16:37;;;;;;;5.60;3.60;;;;;;;;;;5035657;28;20635;-86
2022/06/10 07:19:03;;;;;;;5.47;3.30;;;;;;;;;;5029468;28;20186;-85
2022/06/10 07:21:30;;;;;;;5.18;4.20;;;;;;;;;;5019325;28;20452;-85
2022/06/10 07:23:56;;;;;;;5.53;4.30;;;;;;;;;;5017318;28;20228;-85
2022/06/10 07:26:23;;;;;;;8.13;4.07;;;;;;;;;;5023995;28;20202;-86
2022/06/10 07:28:49;;;;;;;4.40;3.85;;;;;;;;;;5024479;28;20179;-86
2022/06/10 07:31:15;;;;;;;5.65;4.55;;;;;;;;;;5025019;28;20186;-85
2022/06/10 07:33:41;;;;;;;5.97;4.07;;;;;;;;;;5030380;28;20177;-85
2022/06/10 07:36:10;;;;;;;4.88;3.90;;;;;;;;;;5014973;28;20753;-85
2022/06/10 07:38:36;;;;;;;5.78;4.18;;;;;;;;;;5034068;28;20279;-85
2022/06/10 07:43:46;;;;;;;4.75;3.60;;;;;;;;;;5034379;28;20236;-86
2022/06/10 07:46:15;;;;;;;5.35;3.45;;;;;;;;;;5026154;28;20229;-86
2022/06/10 07:48:41;;;;;;;8.80;4.65;;;;;;;;;;5037114;28;20182;-86
2022/06/10 07:51:07;;;;;;;5.35;3.65;;;;;;;;;;5024723;28;20526;-86
2022/06/10 07:53:33;;;;;;;5.93;3.97;;;;;;;;;;5025695;28;20215;-87
2022/06/10 07:56:00;;;;;;;6.32;3.63;;;;;;;;;;5027387;28;20748;-88
2022/06/10 07:58:28;;;;;;;4.90;3.72;;;;;;;;;;5035463;28;20304;-86
2022/06/10 08:00:54;;;;;;;7.45;3.40;;;;;;;;;;5025157;28;20231;-87
2022/06/10 08:03:20;;;;;;;5.40;3.17;;;;;;;;;;5016569;28;20289;-87
2022/06/10 08:05:46;;;;;;;5.05;3.13;;;;;;;;;;5026984;28;20193;-87
2022/06/10 08:08:17;;;;;;;7.47;3.90;;;;;;;;;;5027432;28;20632;-88
2022/06/10 08:10:43;;;;;;;8.05;3.75;;;;;;;;;;5025153;28;20779;-87
2022/06/10 08:13:09;;;;;;;6.50;3.92;;;;;;;;;;5026224;28;20266;-86
2022/06/10 08:15:35;;;;;;;7.22;3.33;;;;;;;;;;5017716;28;20251;-87
2022/06/10 08:18:01;;;;;;;5.22;3.03;;;;;;;;;;5024858;28;20209;-87
2022/06/10 08:23:16;;;;;;;7.68;2.78;;;;;;;;;;5033471;28;20225;-86
2022/06/10 08:25:42;;;;;;;4.47;2.90;;;;;;;;;;5017630;28;20194;-86
2022/06/10 08:28:08;;;;;;;4.35;2.13;;;;;;;;;;5021650;28;20214;-86
2022/06/10 08:30:34;;;;;;;3.55;1.80;;;;;;;;;;5017007;28;20185;-86
2022/06/10 08:33:04;;;;;;;4.03;2.10;;;;;;;;;;5024013;28;20599;-87
2022/06/10 08:35:31;;;;;;;4.35;2.42;;;;;;;;;;5017051;28;20606;-86
2022/06/10 08:37:57;;;;;;;4.05;2.17;;;;;;;;;;5021984;28;20206;-86
2022/06/10 08:40:42;;;;;;;4.43;1.95;;;;;;;;;;5018902;28;21014;-87
2022/06/10 08:43:27;;;;;;;6.13;2.10;;;;;;;;;;5029063;28;20282;-86
2022/06/10 08:45:59;;;;;;;5.78;2.17;;;;;;;;;;5023484;28;20281;-86
2022/06/10 08:48:48;;;;;;;6.32;2.40;;;;;;;;;;5040426;28;20229;-86
2022/06/10 08:51:14;;;;;;;5.43;1.80;;;;;;;;;;5013442;28;20359;-86
2022/06/10 08:54:00;;;;;;;4.95;1.77;;;;;;;;;;5037398;28;20178;-87
2022/06/10 08:56:34;;;;;;;8.15;2.00;;;;;;;;;;5032680;28;20210;-88
2022/06/10 08:59:09;;;;;;;3.33;1.15;;;;;;;;;;5022981;28;20787;-86
2022/06/10 09:01:44;;;;;;;4.30;1.52;;;;;;;;;;5030966;28;20556;-86
2022/06/10 09:04:10;;;;;;;3.90;1.42;;;;;;;;;;5043783;28;20217;-87
2022/06/10 09:06:39;;;;;;;2.95;1.20;;;;;;;;;;5031696;28;20236;-87
2022/06/10 09:09:06;;;;;;;2.28;1.27;;;;;;;;;;5032193;28;20201;-87
2022/06/10 09:11:44;;;;;;;5.38;1.33;;;;;;;;;;5041031;28;20178;-86
2022/06/10 09:14:16;;;;;;;5.10;1.48;;;;;;;;;;5038084;28;20182;-87
2022/06/10 09:16:47;;;;;;;3.22;1.17;;;;;;;;;;5030256;28;20238;-87
2022/06/10 09:19:22;;;;;;;4.07;1.48;;;;;;;;;;5031812;28;20212;-87
2022/06/10 09:22:03;;;;;;;3.00;1.05;;;;;;;;;;5023863;28;20179;-87
2022/06/10 09:24:56;;;;;;;3.05;1.30;;;;;;;;;;5028426;28;20178;-87
2022/06/10 09:27:28;;;;;;;3.80;1.40;;;;;;;;;;5021809;28;20313;-87
2022/06/10 09:29:57;;;;;;;3.97;1.40;;;;;;;;;;5030428;28;20182;-87
2022/06/10 09:32:42;;;;;;;4.15;1.80;;;;;;;;;;5030190;28;20284;-87
2022/06/10 09:35:08;;;;;;;4.60;1.42;;;;;;;;;;5031318;28;20217;-87
2022/06/10 09:37:49;;;;;;;3.58;1.45;;;;;;;;;;5037380;28;20244;-87
2022/06/10 09:40:45;;;;;;;3.13;1.45;;;;;;;;;;5030280;28;20277;-87
2022/06/10 09:43:11;;;;;;;3.75;1.50;;;;;;;;;;5013045;28;20198;-88
2022/06/10 09:45:37;;;;;;;4.13;1.75;;;;;;;;;;5038218;28;20187;-87
2022/06/10 09:48:12;;;;;;;3.28;1.75;;;;;;;;;;5022381;28;20311;-88
2022/06/10 09:50:59;;;;;;;2.90;1.50;;;;;;;;;;5037771;28;20189;-87
2022/06/10 09:53:50;;;;;;;4.07;1.80;;;;;;;;;;5027644;28;20305;-87
2022/06/10 09:56:33;;;;;;;3.78;1.65;;;;;;;;;;5020381;28;20210;-87
2022/06/10 09:58:59;;;;;;;2.85;1.42;;;;;;;;;;5015191;28;20193;-87
2022/06/10 10:01:34;;;;;;;3.75;1.50;;;;;;;;;;5026904;28;20178;-87
2022/06/10 10:04:09;;;;;;;4.03;1.73;;;;;;;;;;5034280;28;20186;-87
2022/06/10 10:06:35;;;;;;;3.72;1.75;;;;;;;;;;5039685;28;20576;-87
2022/06/10 10:09:07;;;;;;;2.97;1.42;;;;;;;;;;5035563;28;20199;-87
2022/06/10 10:11:49;;;;;;;4.03;1.88;;;;;;;;;;5027133;28;20865;-87
2022/06/10 10:14:27;;;;;;;4.53;1.52;;;;;;;;;;5025828;28;20186;-87
2022/06/10 10:17:06;;;;;;;5.38;1.80;;;;;;;;;;5018810;28;20238;-86
2022/06/10 10:19:38;;;;;;;4.65;1.80;;;;;;;;;;5033494;28;20554;-86
2022/06/10 10:22:04;;;;;;;3.60;1.40;;;;;;;;;;5026787;28;20711;-86
2022/06/10 10:24:34;;;;;;;5.35;1.55;;;;;;;;;;5025642;28;20182;-86
2022/06/10 10:27:00;;;;;;;3.63;1.58;;;;;;;;;;5024931;28;20321;-86
2022/06/10 10:29:27;;;;;;;3.78;1.52;;;;;;;;;;5025706;28;20277;-87
2022/06/10 10:32:15;;;;;;;4.00;1.58;;;;;;;;;;5035225;28;20194;-88
2022/06/10 10:34:44;;;;;;;7.18;1.77;;;;;;;;;;5035708;28;20207;-86
2022/06/10 10:37:22;;;;;;;4.22;1.55;;;;;;;;;;5023382;28;20210;-86
2022/06/10 10:39:53;;;;;;;3.15;1.48;;;;;;;;;;5021304;28;20182;-86
2022/06/10 10:42:21;;;;;;;5.70;1.73;;;;;;;;;;5027671;28;20182;-86
2022/06/10 10:44:52;;;;;;;3.53;1.20;;;;;;;;;;5025216;28;20190;-86
2022/06/10 10:47:21;;;;;;;3.67;1.20;;;;;;;;;;5023814;28;20684;-87
2022/06/10 10:49:50;;;;;;;4.05;1.27;;;;;;;;;;5027209;28;20182;-87
2022/06/10 10:52:21;;;;;;;3.72;1.10;;;;;;;;;;5023421;28;20244;-86
2022/06/10 10:54:49;;;;;;;3.97;1.30;;;;;;;;;;5029320;28;20242;-86
2022/06/10 10:57:21;;;;;;;2.30;1.20;;;;;;;;;;5026939;28;20203;-86
2022/06/10 10:59:53;;;;;;;4.03;1.50;;;;;;;;;;5018674;28;20655;-86
2022/06/10 11:02:37;;;;;;;7.45;1.58;;;;;;;;;;5027459;28;20193;-87
2022/06/10 11:05:09;;;;;;;4.13;1.17;;;;;;;;;;5028028;28;20194;-87
2022/06/10 11:07:36;;;;;;;2.03;1.25;;;;;;;;;;5016363;28;20230;-87
2022/06/10 11:10:08;;;;;;;2.60;1.30;;;;;;;;;;5037428;28;20288;-87
2022/06/10 11:12:34;;;;;;;2.33;1.10;;;;;;;;;;5017538;28;20186;-87
2022/06/10 11:15:03;;;;;;;1.40;1.00;;;;;;;;;;5035183;28;20218;-88
2022/06/10 11:17:30;;;;;;;4.03;1.20;;;;;;;;;;5027593;28;20566;-88
2022/06/10 11:19:59;;;;;;;4.72;1.35;;;;;;;;;;5027425;28;20182;-88
2022/06/10 11:22:39;;;;;;;2.65;1.00;;;;;;;;;;5029363;28;20705;-88
2022/06/10 11:25:06;;;;;;;5.45;1.73;;;;;;;;;;5025537;28;20252;-88
2022/06/10 11:27:32;;;;;;;2.40;1.00;;;;;;;;;;5022810;28;20213;-88
2022/06/10 11:30:24;;;;;;;3.17;1.30;;;;;;;;;;5036431;28;20182;-87
2022/06/10 11:32:51;;;;;;;1.77;1.05;;;;;;;;;;5015385;28;20251;-88
2022/06/10 11:35:23;;;;;;;3.80;1.30;;;;;;;;;;5024718;28;20681;-88
2022/06/10 11:37:58;;;;;;;3.78;1.20;;;;;;;;;;5025345;28;20260;-87
2022/06/10 11:40:26;;;;;;;2.60;1.05;;;;;;;;;;5027373;28;20201;-87
2022/06/10 11:43:28;;;;;;;1.50;1.23;;;;;;;;;;5021479;28;20550;-87
2022/06/10 11:46:02;;;;;;;4.40;1.27;;;;;;;;;;4958865;28;20209;-88
2022/06/10 11:48:43;;;;;;;4.03;1.20;;;;;;;;;;5027095;28;20384;-86
2022/06/10 11:51:17;;;;;;;1.80;1.00;;;;;;;;;;5035059;28;20810;-88
2022/06/10 11:53:46;;;;;;;3.85;1.35;;;;;;;;;;5032401;28;20185;-87
2022/06/10 12:01:48;;;;;;;3.10;0.90;;;;;;;;;;5037821;28;20621;-88
2022/06/10 12:04:25;;;;;;;1.58;1.00;;;;;;;;;;5026415;28;20182;-87
2022/06/10 12:06:54;;;;;;;3.78;1.20;;;;;;;;;;5015919;28;20567;-87
2022/06/10 12:09:21;;;;;;;4.05;1.23;;;;;;;;;;5025532;28;20195;-87
2022/06/10 12:11:51;;;;;;;2.10;0.90;;;;;;;;;;5023082;28;20217;-88
2022/06/10 12:14:32;;;;;;;3.15;1.10;;;;;;;;;;5026574;28;20175;-89
2022/06/10 12:17:06;;;;;;;3.58;1.30;;;;;;;;;;5027796;28;20630;-89
2022/06/10 12:19:38;;;;;;;5.13;1.00;;;;;;;;;;5018935;28;20261;-88
2022/06/10 12:22:04;;;;;;;3.53;1.40;;;;;;;;;;5029293;28;20684;-90
2022/06/10 12:24:30;;;;;;;2.05;1.10;;;;;;;;;;5020153;28;20233;-88
2022/06/10 12:26:57;;;;;;;2.40;0.90;;;;;;;;;;5018039;28;20691;-89
2022/06/10 12:29:33;;;;;;;2.58;1.23;;;;;;;;;;5029611;28;20793;-89
2022/06/10 12:32:02;;;;;;;1.45;0.88;;;;;;;;;;5028815;28;20252;-89
2022/06/10 12:34:28;;;;;;;2.88;0.93;;;;;;;;;;5027959;28;20310;-88
2022/06/10 12:36:56;;;;;;;2.38;1.50;;;;;;;;;;5025318;28;20285;-89
2022/06/10 12:39:37;;;;;;;1.45;1.20;;;;;;;;;;5035793;28;20277;-89
2022/06/10 12:42:17;;;;;;;3.00;1.50;;;;;;;;;;5036655;28;20182;-89
2022/06/10 12:44:47;;;;;;;1.63;1.00;;;;;;;;;;5025768;28;20208;-89
2022/06/10 12:47:16;;;;;;;1.88;0.90;;;;;;;;;;5027088;28;20233;-88
2022/06/10 12:49:43;;;;;;;2.25;1.10;;;;;;;;;;5027560;28;20656;-89
2022/06/10 12:52:25;;;;;;;2.50;1.30;;;;;;;;;;5026804;28;20190;-87
2022/06/10 12:55:15;;;;;;;4.63;1.30;;;;;;;;;;5036758;28;20213;-87
2022/06/10 12:57:43;;;;;;;2.42;1.10;;;;;;;;;;5017743;28;20202;-86
2022/06/10 13:00:18;;;;;;;1.95;1.10;;;;;;;;;;5038286;28;20287;-87
2022/06/10 13:02:47;;;;;;;3.55;1.33;;;;;;;;;;5035099;28;20218;-87
2022/06/10 13:05:27;;;;;;;4.55;1.98;;;;;;;;;;5020100;28;20198;-87
2022/06/10 13:07:53;;;;;;;3.97;1.20;;;;;;;;;;5024474;28;20202;-87
2022/06/10 13:10:29;;;;;;;1.98;1.15;;;;;;;;;;5025480;28;20198;-87
2022/06/10 13:12:59;;;;;;;3.63;1.23;;;;;;;;;;5018888;28;20284;-87
2022/06/10 13:15:28;;;;;;;5.43;1.70;;;;;;;;;;5024891;28;20356;-88
2022/06/10 13:17:56;;;;;;;2.17;1.05;;;;;;;;;;5017306;28;20199;-88
2022/06/10 13:20:23;;;;;;;1.67;1.27;;;;;;;;;;5027038;28;20190;-87
2022/06/10 13:23:09;;;;;;;2.03;1.20;;;;;;;;;;5027258;28;20178;-87
2022/06/10 13:25:35;;;;;;;8.27;2.90;;;;;;;;;;5024704;28;20185;-89
2022/06/10 13:28:01;;;;;;;2.65;1.45;;;;;;;;;;5037285;28;20215;-88
2022/06/10 13:30:29;;;;;;;15.27;6.05;;;;;;;;;;5029930;28;20191;-88
2022/06/10 13:32:57;;;;;;;7.38;3.03;;;;;;;;;;5029868;28;20189;-92
2022/06/10 13:35:25;;;;;;;4.07;2.20;;;;;;;;;;5035505;28;20272;-90
2022/06/10 13:37:55;;;;;;;1.63;1.20;;;;;;;;;;5018603;28;20201;-88
2022/06/10 13:40:24;;;;;;;1.83;1.20;;;;;;;;;;5040190;28;20201;-88
2022/06/10 13:42:51;;;;;;;2.10;1.30;;;;;;;;;;5021435;28;20379;-90
2022/06/10 13:45:20;;;;;;;2.80;1.42;;;;;;;;;;5032851;28;20652;-87
2022/06/10 13:48:00;;;;;;;2.15;1.20;;;;;;;;;;5057513;28;20580;-88
2022/06/10 13:53:27;;;;;;;3.35;1.30;;;;;;;;;;5039674;28;20196;-88
2022/06/10 13:55:55;;;;;;;3.38;2.30;;;;;;;;;;5030514;28;20256;-88
2022/06/10 13:58:23;;;;;;;2.67;1.60;;;;;;;;;;5030340;28;20224;-87
2022/06/10 14:00:57;;;;;;;2.20;1.10;;;;;;;;;;5032966;28;20536;-88
2022/06/10 14:03:26;;;;;;;2.25;1.35;;;;;;;;;;5041763;28;20532;-89
2022/06/10 14:05:59;;;;;;;2.83;1.38;;;;;;;;;;5029120;28;20210;-87
2022/06/10 14:08:27;;;;;;;3.08;1.60;;;;;;;;;;5031814;28;20202;-89
2022/06/10 14:10:53;;;;;;;2.63;1.55;;;;;;;;;;5030710;28;20174;-89
2022/06/10 14:13:23;;;;;;;3.90;3.10;;;;;;;;;;5021713;28;20673;-88
2022/06/10 14:15:51;;;;;;;3.10;1.50;;;;;;;;;;5028882;28;20415;-87
2022/06/10 14:18:21;;;;;;;3.03;1.77;;;;;;;;;;5030263;28;20214;-88
2022/06/10 14:20:47;;;;;;;2.33;1.30;;;;;;;;;;5032230;28;20170;-88
2022/06/10 14:23:42;;;;;;;3.53;1.65;;;;;;;;;;5041055;28;20202;-90
2022/06/10 14:26:11;;;;;;;4.60;1.75;;;;;;;;;;5019169;28;20226;-86
2022/06/10 14:28:38;;;;;;;2.65;1.38;;;;;;;;;;5028480;28;20668;-89
2022/06/10 14:31:05;;;;;;;3.08;1.80;;;;;;;;;;5040628;28;20199;-89
2022/06/10 14:33:33;;;;;;;4.57;1.73;;;;;;;;;;5032470;28;20186;-88
2022/06/10 14:36:07;;;;;;;3.60;1.30;;;;;;;;;;5028423;28;20219;-88
2022/06/10 14:38:33;;;;;;;1.95;1.50;;;;;;;;;;5027035;28;20890;-89
2022/06/10 14:41:08;;;;;;;2.85;1.65;;;;;;;;;;5027585;28;20183;-88
2022/06/10 14:43:52;;;;;;;2.22;1.45;;;;;;;;;;5035599;28;20201;-88
2022/06/10 14:46:19;;;;;;;3.30;1.40;;;;;;;;;;5026462;28;20301;-88
2022/06/10 14:48:47;;;;;;;2.97;1.48;;;;;;;;;;5025189;28;20192;-87
2022/06/10 14:51:17;;;;;;;2.50;1.80;;;;;;;;;;5025582;28;20186;-87
2022/06/10 14:53:45;;;;;;;2.40;1.65;;;;;;;;;;5017329;28;20197;-88
2022/06/10 14:56:17;;;;;;;2.97;1.50;;;;;;;;;;5027789;28;20234;-86
2022/06/10 14:58:43;;;;;;;4.25;1.77;;;;;;;;;;5015682;28;20233;-88
2022/06/10 15:01:16;;;;;;;3.97;1.70;;;;;;;;;;5014733;28;20682;-87
2022/06/10 15:03:42;;;;;;;3.72;1.92;;;;;;;;;;5024706;28;20178;-84
2022/06/10 15:06:23;;;;;;;1.45;1.35;;;;;;;;;;5022226;28;20241;-83
2022/06/10 15:08:51;;;;;;;2.38;1.50;;;;;;;;;;5032705;28;20206;-84
2022/06/10 15:11:17;;;;;;;2.63;1.70;;;;;;;;;;5028453;28;20189;-86
2022/06/10 15:13:45;;;;;;;2.53;1.70;;;;;;;;;;5025031;28;20186;-87
2022/06/10 15:16:13;;;;;;;3.67;1.85;;;;;;;;;;5024135;28;20218;-85
2022/06/10 15:18:39;;;;;;;3.45;2.28;;;;;;;;;;5031831;28;20179;-86
2022/06/10 15:21:05;;;;;;;4.97;2.15;;;;;;;;;;5022630;28;20774;-85